National Weather Service Raw Text Product

Displaying AFOS PIL: TAFALO Received: 2018-08-11 06:51 UTC


665 
FTUS43 KDMX 110651 AAA
TAFALO
TAF AMD
KALO 110651Z 1107/1206 VRB02KT 2SM BR FEW250
     FM111300 00000KT 5SM BR FEW200
     FM111400 VRB03KT P6SM SCT250=